sensor_id;sensor_type;location;lat;lon;timestamp;P1;durP1;ratioP1;P2;durP2;ratioP2
78430;SDS011;67727;50.236;22.452;2023-11-18T00:01:44;12.60;;;8.30;;
78430;SDS011;67727;50.236;22.452;2023-11-18T00:04:11;16.50;;;9.80;;
78430;SDS011;67727;50.236;22.452;2023-11-18T00:06:44;11.90;;;8.60;;
78430;SDS011;67727;50.236;22.452;2023-11-18T00:09:11;12.60;;;8.30;;
78430;SDS011;67727;50.236;22.452;2023-11-18T00:11:42;14.40;;;9.20;;
78430;SDS011;67727;50.236;22.452;2023-11-18T00:14:10;16.20;;;9.80;;
78430;SDS011;67727;50.236;22.452;2023-11-18T00:16:37;13.20;;;7.90;;
78430;SDS011;67727;50.236;22.452;2023-11-18T00:19:05;11.70;;;7.30;;
78430;SDS011;67727;50.236;22.452;2023-11-18T00:21:32;17.20;;;10.40;;
78430;SDS011;67727;50.236;22.452;2023-11-18T00:23:59;14.30;;;7.80;;
78430;SDS011;67727;50.236;22.452;2023-11-18T00:26:26;17.70;;;11.30;;
78430;SDS011;67727;50.236;22.452;2023-11-18T00:28:52;17.50;;;9.40;;
78430;SDS011;67727;50.236;22.452;2023-11-18T00:31:19;12.40;;;8.10;;
78430;SDS011;67727;50.236;22.452;2023-11-18T00:33:46;18.20;;;10.60;;
78430;SDS011;67727;50.236;22.452;2023-11-18T00:36:13;15.30;;;10.00;;
78430;SDS011;67727;50.236;22.452;2023-11-18T00:38:40;14.30;;;8.30;;
78430;SDS011;67727;50.236;22.452;2023-11-18T00:41:07;13.90;;;8.10;;
78430;SDS011;67727;50.236;22.452;2023-11-18T00:43:34;11.20;;;8.00;;
78430;SDS011;67727;50.236;22.452;2023-11-18T00:46:01;11.60;;;7.70;;
78430;SDS011;67727;50.236;22.452;2023-11-18T00:48:29;13.40;;;8.50;;
78430;SDS011;67727;50.236;22.452;2023-11-18T00:50:56;13.50;;;6.90;;
78430;SDS011;67727;50.236;22.452;2023-11-18T00:53:24;17.20;;;9.40;;
78430;SDS011;67727;50.236;22.452;2023-11-18T00:55:50;15.90;;;9.00;;
78430;SDS011;67727;50.236;22.452;2023-11-18T00:58:17;10.70;;;6.90;;
78430;SDS011;67727;50.236;22.452;2023-11-18T01:00:44;14.10;;;8.40;;
78430;SDS011;67727;50.236;22.452;2023-11-18T01:03:11;13.40;;;7.60;;
78430;SDS011;67727;50.236;22.452;2023-11-18T01:05:38;9.70;;;5.70;;
78430;SDS011;67727;50.236;22.452;2023-11-18T01:08:05;14.60;;;8.50;;
78430;SDS011;67727;50.236;22.452;2023-11-18T01:10:32;14.50;;;8.20;;
78430;SDS011;67727;50.236;22.452;2023-11-18T01:12:59;11.90;;;7.70;;
78430;SDS011;67727;50.236;22.452;2023-11-18T01:15:25;15.20;;;8.60;;
78430;SDS011;67727;50.236;22.452;2023-11-18T01:17:52;12.00;;;7.10;;
78430;SDS011;67727;50.236;22.452;2023-11-18T01:20:19;15.10;;;8.10;;
78430;SDS011;67727;50.236;22.452;2023-11-18T01:22:48;13.20;;;8.50;;
78430;SDS011;67727;50.236;22.452;2023-11-18T01:25:15;16.50;;;9.10;;
78430;SDS011;67727;50.236;22.452;2023-11-18T01:27:45;15.10;;;9.00;;
78430;SDS011;67727;50.236;22.452;2023-11-18T01:30:15;14.90;;;6.50;;
78430;SDS011;67727;50.236;22.452;2023-11-18T01:32:42;16.40;;;8.80;;
78430;SDS011;67727;50.236;22.452;2023-11-18T01:35:09;12.90;;;8.10;;
78430;SDS011;67727;50.236;22.452;2023-11-18T01:37:39;15.00;;;8.10;;
78430;SDS011;67727;50.236;22.452;2023-11-18T01:40:06;14.40;;;8.90;;
78430;SDS011;67727;50.236;22.452;2023-11-18T01:42:34;13.00;;;8.30;;
78430;SDS011;67727;50.236;22.452;2023-11-18T01:45:01;10.60;;;6.90;;
78430;SDS011;67727;50.236;22.452;2023-11-18T01:47:31;12.40;;;7.30;;
78430;SDS011;67727;50.236;22.452;2023-11-18T01:49:59;14.00;;;7.60;;
78430;SDS011;67727;50.236;22.452;2023-11-18T01:52:27;13.60;;;7.70;;
78430;SDS011;67727;50.236;22.452;2023-11-18T01:54:56;14.00;;;8.10;;
78430;SDS011;67727;50.236;22.452;2023-11-18T01:57:25;15.10;;;8.70;;
78430;SDS011;67727;50.236;22.452;2023-11-18T01:59:53;14.10;;;7.80;;
78430;SDS011;67727;50.236;22.452;2023-11-18T02:02:20;14.40;;;8.20;;
78430;SDS011;67727;50.236;22.452;2023-11-18T02:04:47;12.30;;;7.40;;
78430;SDS011;67727;50.236;22.452;2023-11-18T02:07:14;13.20;;;7.70;;
78430;SDS011;67727;50.236;22.452;2023-11-18T02:09:41;10.50;;;7.00;;
78430;SDS011;67727;50.236;22.452;2023-11-18T02:15:06;12.70;;;7.10;;
78430;SDS011;67727;50.236;22.452;2023-11-18T02:17:39;11.90;;;7.10;;
78430;SDS011;67727;50.236;22.452;2023-11-18T02:20:08;12.40;;;6.50;;
78430;SDS011;67727;50.236;22.452;2023-11-18T02:22:42;14.80;;;7.70;;
78430;SDS011;67727;50.236;22.452;2023-11-18T02:25:10;18.70;;;9.20;;
78430;SDS011;67727;50.236;22.452;2023-11-18T02:27:45;6.90;;;4.20;;
78430;SDS011;67727;50.236;22.452;2023-11-18T02:30:12;17.20;;;8.40;;
78430;SDS011;67727;50.236;22.452;2023-11-18T02:35:35;16.10;;;8.30;;
78430;SDS011;67727;50.236;22.452;2023-11-18T02:38:04;17.70;;;8.80;;
78430;SDS011;67727;50.236;22.452;2023-11-18T02:40:39;12.40;;;7.40;;
78430;SDS011;67727;50.236;22.452;2023-11-18T02:43:10;10.90;;;6.90;;
78430;SDS011;67727;50.236;22.452;2023-11-18T02:45:37;15.80;;;8.50;;
78430;SDS011;67727;50.236;22.452;2023-11-18T02:48:05;8.70;;;5.80;;
78430;SDS011;67727;50.236;22.452;2023-11-18T02:50:32;16.90;;;8.10;;
78430;SDS011;67727;50.236;22.452;2023-11-18T02:53:01;13.60;;;7.70;;
78430;SDS011;67727;50.236;22.452;2023-11-18T02:55:29;15.10;;;8.50;;
78430;SDS011;67727;50.236;22.452;2023-11-18T02:57:55;11.80;;;7.30;;
78430;SDS011;67727;50.236;22.452;2023-11-18T03:00:23;14.60;;;7.70;;
78430;SDS011;67727;50.236;22.452;2023-11-18T03:02:50;15.70;;;6.60;;
78430;SDS011;67727;50.236;22.452;2023-11-18T03:05:18;13.20;;;7.80;;
78430;SDS011;67727;50.236;22.452;2023-11-18T03:07:45;17.40;;;8.30;;
78430;SDS011;67727;50.236;22.452;2023-11-18T03:10:24;14.00;;;8.60;;
78430;SDS011;67727;50.236;22.452;2023-11-18T03:12:51;12.90;;;7.60;;
78430;SDS011;67727;50.236;22.452;2023-11-18T03:15:19;11.60;;;7.60;;
78430;SDS011;67727;50.236;22.452;2023-11-18T03:17:49;8.90;;;6.10;;
78430;SDS011;67727;50.236;22.452;2023-11-18T03:20:17;14.90;;;7.00;;
78430;SDS011;67727;50.236;22.452;2023-11-18T03:25:16;15.30;;;7.40;;
78430;SDS011;67727;50.236;22.452;2023-11-18T03:27:44;17.90;;;9.00;;
78430;SDS011;67727;50.236;22.452;2023-11-18T03:30:11;15.10;;;8.80;;
78430;SDS011;67727;50.236;22.452;2023-11-18T03:32:38;13.70;;;7.10;;
78430;SDS011;67727;50.236;22.452;2023-11-18T03:35:08;11.80;;;6.50;;
78430;SDS011;67727;50.236;22.452;2023-11-18T03:37:35;13.00;;;6.10;;
78430;SDS011;67727;50.236;22.452;2023-11-18T03:40:05;10.90;;;6.50;;
78430;SDS011;67727;50.236;22.452;2023-11-18T03:42:40;13.80;;;7.30;;
78430;SDS011;67727;50.236;22.452;2023-11-18T03:45:08;12.20;;;6.20;;
78430;SDS011;67727;50.236;22.452;2023-11-18T03:47:38;11.10;;;6.80;;
78430;SDS011;67727;50.236;22.452;2023-11-18T03:50:05;13.40;;;7.30;;
78430;SDS011;67727;50.236;22.452;2023-11-18T03:52:35;8.00;;;5.60;;
78430;SDS011;67727;50.236;22.452;2023-11-18T03:55:03;4.60;;;3.50;;
78430;SDS011;67727;50.236;22.452;2023-11-18T03:59:57;11.10;;;7.00;;
78430;SDS011;67727;50.236;22.452;2023-11-18T04:02:24;8.80;;;4.60;;
78430;SDS011;67727;50.236;22.452;2023-11-18T04:04:51;13.50;;;7.90;;
78430;SDS011;67727;50.236;22.452;2023-11-18T04:07:18;14.10;;;8.20;;
78430;SDS011;67727;50.236;22.452;2023-11-18T04:09:45;12.70;;;7.80;;
78430;SDS011;67727;50.236;22.452;2023-11-18T04:12:11;11.20;;;6.70;;
78430;SDS011;67727;50.236;22.452;2023-11-18T04:14:38;14.20;;;7.60;;
78430;SDS011;67727;50.236;22.452;2023-11-18T04:17:05;11.70;;;7.20;;
78430;SDS011;67727;50.236;22.452;2023-11-18T04:19:34;10.20;;;6.40;;
78430;SDS011;67727;50.236;22.452;2023-11-18T04:22:01;12.00;;;8.00;;
78430;SDS011;67727;50.236;22.452;2023-11-18T04:24:28;11.50;;;7.70;;
78430;SDS011;67727;50.236;22.452;2023-11-18T04:26:55;13.50;;;8.00;;
78430;SDS011;67727;50.236;22.452;2023-11-18T04:29:22;7.80;;;5.00;;
78430;SDS011;67727;50.236;22.452;2023-11-18T04:31:49;10.50;;;5.20;;
78430;SDS011;67727;50.236;22.452;2023-11-18T04:34:16;11.80;;;7.50;;
78430;SDS011;67727;50.236;22.452;2023-11-18T04:36:43;12.30;;;6.70;;
78430;SDS011;67727;50.236;22.452;2023-11-18T04:39:10;10.20;;;5.40;;
78430;SDS011;67727;50.236;22.452;2023-11-18T04:41:42;16.30;;;8.50;;
78430;SDS011;67727;50.236;22.452;2023-11-18T04:44:09;15.70;;;7.30;;
78430;SDS011;67727;50.236;22.452;2023-11-18T04:46:35;13.20;;;7.80;;
78430;SDS011;67727;50.236;22.452;2023-11-18T04:49:03;9.20;;;6.00;;
78430;SDS011;67727;50.236;22.452;2023-11-18T04:51:31;10.40;;;6.50;;
78430;SDS011;67727;50.236;22.452;2023-11-18T04:53:59;9.30;;;5.70;;
78430;SDS011;67727;50.236;22.452;2023-11-18T04:56:26;13.40;;;7.50;;
78430;SDS011;67727;50.236;22.452;2023-11-18T04:58:53;15.30;;;8.50;;
78430;SDS011;67727;50.236;22.452;2023-11-18T05:01:20;15.90;;;9.00;;
78430;SDS011;67727;50.236;22.452;2023-11-18T05:03:47;9.60;;;5.50;;
78430;SDS011;67727;50.236;22.452;2023-11-18T05:06:14;10.70;;;5.90;;
78430;SDS011;67727;50.236;22.452;2023-11-18T05:08:40;11.50;;;6.80;;
78430;SDS011;67727;50.236;22.452;2023-11-18T05:11:07;13.70;;;7.70;;
78430;SDS011;67727;50.236;22.452;2023-11-18T05:13:34;8.10;;;5.00;;
78430;SDS011;67727;50.236;22.452;2023-11-18T05:16:01;12.50;;;8.10;;
78430;SDS011;67727;50.236;22.452;2023-11-18T05:18:30;9.60;;;7.30;;
78430;SDS011;67727;50.236;22.452;2023-11-18T05:21:01;9.50;;;6.40;;
78430;SDS011;67727;50.236;22.452;2023-11-18T05:23:29;11.70;;;6.90;;
78430;SDS011;67727;50.236;22.452;2023-11-18T05:25:56;12.80;;;7.60;;
78430;SDS011;67727;50.236;22.452;2023-11-18T05:28:24;14.90;;;7.20;;
78430;SDS011;67727;50.236;22.452;2023-11-18T05:30:51;16.00;;;6.90;;
78430;SDS011;67727;50.236;22.452;2023-11-18T05:33:18;11.90;;;6.60;;
78430;SDS011;67727;50.236;22.452;2023-11-18T05:35:45;12.30;;;7.50;;
78430;SDS011;67727;50.236;22.452;2023-11-18T05:38:16;10.40;;;7.40;;
78430;SDS011;67727;50.236;22.452;2023-11-18T05:40:48;11.60;;;7.10;;
78430;SDS011;67727;50.236;22.452;2023-11-18T05:43:24;8.20;;;4.90;;
78430;SDS011;67727;50.236;22.452;2023-11-18T05:45:56;12.20;;;6.40;;
78430;SDS011;67727;50.236;22.452;2023-11-18T05:48:42;8.90;;;5.50;;
78430;SDS011;67727;50.236;22.452;2023-11-18T05:51:10;10.20;;;6.00;;
78430;SDS011;67727;50.236;22.452;2023-11-18T05:53:43;4.60;;;3.60;;
78430;SDS011;67727;50.236;22.452;2023-11-18T05:56:13;10.30;;;6.30;;
78430;SDS011;67727;50.236;22.452;2023-11-18T05:58:43;12.20;;;7.60;;
78430;SDS011;67727;50.236;22.452;2023-11-18T06:01:11;15.40;;;8.40;;
78430;SDS011;67727;50.236;22.452;2023-11-18T06:03:39;15.60;;;7.90;;
78430;SDS011;67727;50.236;22.452;2023-11-18T06:06:09;14.20;;;8.80;;
78430;SDS011;67727;50.236;22.452;2023-11-18T06:08:38;14.10;;;8.20;;
78430;SDS011;67727;50.236;22.452;2023-11-18T06:11:10;10.70;;;7.10;;
78430;SDS011;67727;50.236;22.452;2023-11-18T06:13:44;12.00;;;7.20;;
78430;SDS011;67727;50.236;22.452;2023-11-18T06:16:16;9.00;;;6.50;;
78430;SDS011;67727;50.236;22.452;2023-11-18T06:18:48;11.70;;;7.60;;
78430;SDS011;67727;50.236;22.452;2023-11-18T06:21:25;8.30;;;5.80;;
78430;SDS011;67727;50.236;22.452;2023-11-18T06:23:57;10.90;;;6.60;;
78430;SDS011;67727;50.236;22.452;2023-11-18T06:26:25;8.50;;;5.10;;
78430;SDS011;67727;50.236;22.452;2023-11-18T06:28:53;12.10;;;7.40;;
78430;SDS011;67727;50.236;22.452;2023-11-18T06:31:21;11.60;;;8.30;;
78430;SDS011;67727;50.236;22.452;2023-11-18T06:33:50;11.50;;;7.40;;
78430;SDS011;67727;50.236;22.452;2023-11-18T06:36:20;12.50;;;6.90;;
78430;SDS011;67727;50.236;22.452;2023-11-18T06:38:49;13.40;;;7.70;;
78430;SDS011;67727;50.236;22.452;2023-11-18T06:41:17;13.10;;;7.70;;
78430;SDS011;67727;50.236;22.452;2023-11-18T06:44:00;9.50;;;5.80;;
78430;SDS011;67727;50.236;22.452;2023-11-18T06:46:35;9.80;;;5.50;;
78430;SDS011;67727;50.236;22.452;2023-11-18T06:49:06;12.50;;;7.20;;
78430;SDS011;67727;50.236;22.452;2023-11-18T06:51:34;10.10;;;6.90;;
78430;SDS011;67727;50.236;22.452;2023-11-18T06:56:40;11.10;;;6.20;;
78430;SDS011;67727;50.236;22.452;2023-11-18T06:59:12;11.60;;;8.10;;
78430;SDS011;67727;50.236;22.452;2023-11-18T07:01:40;10.60;;;6.80;;
78430;SDS011;67727;50.236;22.452;2023-11-18T07:04:10;13.50;;;7.50;;
78430;SDS011;67727;50.236;22.452;2023-11-18T07:06:37;15.30;;;8.60;;
78430;SDS011;67727;50.236;22.452;2023-11-18T07:09:05;14.40;;;8.40;;
78430;SDS011;67727;50.236;22.452;2023-11-18T07:11:40;14.50;;;8.80;;
78430;SDS011;67727;50.236;22.452;2023-11-18T07:14:07;13.50;;;8.70;;
78430;SDS011;67727;50.236;22.452;2023-11-18T07:16:35;21.20;;;9.90;;
78430;SDS011;67727;50.236;22.452;2023-11-18T07:19:05;51.80;;;21.00;;
78430;SDS011;67727;50.236;22.452;2023-11-18T07:21:32;20.70;;;11.20;;
78430;SDS011;67727;50.236;22.452;2023-11-18T07:24:00;24.60;;;11.70;;
78430;SDS011;67727;50.236;22.452;2023-11-18T07:26:28;16.00;;;7.70;;
78430;SDS011;67727;50.236;22.452;2023-11-18T07:28:55;23.20;;;12.80;;
78430;SDS011;67727;50.236;22.452;2023-11-18T07:31:23;17.20;;;10.50;;
78430;SDS011;67727;50.236;22.452;2023-11-18T07:33:51;19.80;;;10.50;;
78430;SDS011;67727;50.236;22.452;2023-11-18T07:36:18;14.70;;;8.00;;
78430;SDS011;67727;50.236;22.452;2023-11-18T07:38:48;13.60;;;9.20;;
78430;SDS011;67727;50.236;22.452;2023-11-18T07:41:16;12.00;;;7.70;;
78430;SDS011;67727;50.236;22.452;2023-11-18T07:43:54;8.70;;;6.40;;
78430;SDS011;67727;50.236;22.452;2023-11-18T07:46:22;13.80;;;8.60;;
78430;SDS011;67727;50.236;22.452;2023-11-18T07:48:49;13.00;;;8.50;;
78430;SDS011;67727;50.236;22.452;2023-11-18T07:51:18;7.40;;;5.50;;
78430;SDS011;67727;50.236;22.452;2023-11-18T07:53:49;13.90;;;8.90;;
78430;SDS011;67727;50.236;22.452;2023-11-18T07:56:17;17.90;;;10.60;;
78430;SDS011;67727;50.236;22.452;2023-11-18T07:58:44;22.60;;;12.40;;
78430;SDS011;67727;50.236;22.452;2023-11-18T08:01:14;17.40;;;9.60;;
78430;SDS011;67727;50.236;22.452;2023-11-18T08:03:44;17.00;;;10.50;;
78430;SDS011;67727;50.236;22.452;2023-11-18T08:06:11;14.40;;;8.60;;
78430;SDS011;67727;50.236;22.452;2023-11-18T08:08:39;21.00;;;12.90;;
78430;SDS011;67727;50.236;22.452;2023-11-18T08:11:09;20.80;;;11.60;;
78430;SDS011;67727;50.236;22.452;2023-11-18T08:13:38;20.20;;;14.40;;
78430;SDS011;67727;50.236;22.452;2023-11-18T08:16:05;15.20;;;10.90;;
78430;SDS011;67727;50.236;22.452;2023-11-18T08:18:35;10.30;;;8.00;;
78430;SDS011;67727;50.236;22.452;2023-11-18T08:21:02;13.00;;;8.30;;
78430;SDS011;67727;50.236;22.452;2023-11-18T08:23:29;9.30;;;6.50;;
78430;SDS011;67727;50.236;22.452;2023-11-18T08:25:57;16.90;;;8.00;;
78430;SDS011;67727;50.236;22.452;2023-11-18T08:28:24;23.70;;;13.20;;
78430;SDS011;67727;50.236;22.452;2023-11-18T08:30:52;15.90;;;8.60;;
78430;SDS011;67727;50.236;22.452;2023-11-18T08:33:19;29.40;;;13.90;;
78430;SDS011;67727;50.236;22.452;2023-11-18T08:38:15;20.40;;;10.80;;
78430;SDS011;67727;50.236;22.452;2023-11-18T08:40:41;12.10;;;8.20;;
78430;SDS011;67727;50.236;22.452;2023-11-18T08:43:09;25.60;;;11.00;;
78430;SDS011;67727;50.236;22.452;2023-11-18T08:45:38;53.40;;;27.80;;
78430;SDS011;67727;50.236;22.452;2023-11-18T08:48:05;25.90;;;14.70;;
78430;SDS011;67727;50.236;22.452;2023-11-18T08:50:34;30.40;;;20.40;;
78430;SDS011;67727;50.236;22.452;2023-11-18T08:53:02;28.30;;;17.40;;
78430;SDS011;67727;50.236;22.452;2023-11-18T08:55:32;110.80;;;51.30;;
78430;SDS011;67727;50.236;22.452;2023-11-18T08:58:05;57.40;;;32.70;;
78430;SDS011;67727;50.236;22.452;2023-11-18T09:00:47;21.80;;;14.70;;
78430;SDS011;67727;50.236;22.452;2023-11-18T09:05:55;32.30;;;17.30;;
78430;SDS011;67727;50.236;22.452;2023-11-18T09:08:33;35.50;;;19.50;;
78430;SDS011;67727;50.236;22.452;2023-11-18T09:11:02;30.40;;;17.40;;
78430;SDS011;67727;50.236;22.452;2023-11-18T09:13:31;18.40;;;11.70;;
78430;SDS011;67727;50.236;22.452;2023-11-18T09:16:04;23.60;;;14.20;;
78430;SDS011;67727;50.236;22.452;2023-11-18T09:18:36;36.80;;;19.40;;
78430;SDS011;67727;50.236;22.452;2023-11-18T09:21:06;59.90;;;28.30;;
78430;SDS011;67727;50.236;22.452;2023-11-18T09:23:34;20.70;;;14.50;;
78430;SDS011;67727;50.236;22.452;2023-11-18T09:26:01;27.70;;;14.80;;
78430;SDS011;67727;50.236;22.452;2023-11-18T09:28:34;19.30;;;10.40;;
78430;SDS011;67727;50.236;22.452;2023-11-18T09:33:32;57.90;;;26.60;;
78430;SDS011;67727;50.236;22.452;2023-11-18T09:36:04;128.80;;;43.60;;
78430;SDS011;67727;50.236;22.452;2023-11-18T09:38:35;37.10;;;15.30;;
78430;SDS011;67727;50.236;22.452;2023-11-18T09:41:03;19.70;;;10.90;;
78430;SDS011;67727;50.236;22.452;2023-11-18T09:43:33;17.90;;;9.90;;
78430;SDS011;67727;50.236;22.452;2023-11-18T09:46:09;85.40;;;32.90;;
78430;SDS011;67727;50.236;22.452;2023-11-18T09:51:07;35.80;;;21.70;;
78430;SDS011;67727;50.236;22.452;2023-11-18T09:53:38;28.20;;;14.30;;
78430;SDS011;67727;50.236;22.452;2023-11-18T09:56:07;41.80;;;18.60;;
78430;SDS011;67727;50.236;22.452;2023-11-18T09:58:54;28.40;;;13.70;;
78430;SDS011;67727;50.236;22.452;2023-11-18T10:01:34;101.50;;;36.40;;
78430;SDS011;67727;50.236;22.452;2023-11-18T10:04:05;46.70;;;22.00;;
78430;SDS011;67727;50.236;22.452;2023-11-18T10:06:35;51.50;;;25.20;;
78430;SDS011;67727;50.236;22.452;2023-11-18T10:11:42;29.50;;;18.40;;
78430;SDS011;67727;50.236;22.452;2023-11-18T10:14:13;62.30;;;24.70;;
78430;SDS011;67727;50.236;22.452;2023-11-18T10:16:44;60.00;;;25.00;;
78430;SDS011;67727;50.236;22.452;2023-11-18T10:19:14;13.70;;;7.80;;
78430;SDS011;67727;50.236;22.452;2023-11-18T10:21:44;28.10;;;17.30;;
78430;SDS011;67727;50.236;22.452;2023-11-18T10:24:15;22.50;;;13.40;;
78430;SDS011;67727;50.236;22.452;2023-11-18T10:26:53;20.90;;;13.80;;
78430;SDS011;67727;50.236;22.452;2023-11-18T10:29:24;289.90;;;93.00;;
78430;SDS011;67727;50.236;22.452;2023-11-18T10:32:07;23.90;;;11.10;;
78430;SDS011;67727;50.236;22.452;2023-11-18T10:34:42;24.80;;;11.00;;
78430;SDS011;67727;50.236;22.452;2023-11-18T10:37:09;42.40;;;24.40;;
78430;SDS011;67727;50.236;22.452;2023-11-18T10:39:37;18.30;;;9.90;;
78430;SDS011;67727;50.236;22.452;2023-11-18T10:42:04;36.40;;;14.50;;
78430;SDS011;67727;50.236;22.452;2023-11-18T10:44:31;94.00;;;33.40;;
78430;SDS011;67727;50.236;22.452;2023-11-18T10:46:58;330.50;;;102.10;;
78430;SDS011;67727;50.236;22.452;2023-11-18T10:49:28;465.10;;;165.90;;
78430;SDS011;67727;50.236;22.452;2023-11-18T10:52:03;303.10;;;104.70;;
78430;SDS011;67727;50.236;22.452;2023-11-18T10:54:33;313.80;;;121.00;;
78430;SDS011;67727;50.236;22.452;2023-11-18T10:57:01;320.40;;;112.30;;
78430;SDS011;67727;50.236;22.452;2023-11-18T10:59:33;635.60;;;274.30;;
78430;SDS011;67727;50.236;22.452;2023-11-18T11:02:01;163.70;;;53.60;;
78430;SDS011;67727;50.236;22.452;2023-11-18T11:04:45;48.40;;;20.50;;
78430;SDS011;67727;50.236;22.452;2023-11-18T11:07:12;48.70;;;19.40;;
78430;SDS011;67727;50.236;22.452;2023-11-18T11:09:40;463.70;;;125.60;;
78430;SDS011;67727;50.236;22.452;2023-11-18T11:12:12;83.20;;;33.10;;
78430;SDS011;67727;50.236;22.452;2023-11-18T11:14:46;88.40;;;30.80;;
78430;SDS011;67727;50.236;22.452;2023-11-18T11:17:22;25.70;;;12.30;;
78430;SDS011;67727;50.236;22.452;2023-11-18T11:20:06;21.60;;;11.10;;
78430;SDS011;67727;50.236;22.452;2023-11-18T11:23:25;25.50;;;13.40;;
78430;SDS011;67727;50.236;22.452;2023-11-18T11:26:02;81.40;;;31.80;;
78430;SDS011;67727;50.236;22.452;2023-11-18T11:28:40;75.50;;;28.80;;
78430;SDS011;67727;50.236;22.452;2023-11-18T11:34:09;53.40;;;19.70;;
78430;SDS011;67727;50.236;22.452;2023-11-18T11:36:48;140.20;;;52.50;;
78430;SDS011;67727;50.236;22.452;2023-11-18T11:39:17;12.40;;;8.40;;
78430;SDS011;67727;50.236;22.452;2023-11-18T11:41:52;166.70;;;68.10;;
78430;SDS011;67727;50.236;22.452;2023-11-18T11:44:23;90.60;;;33.70;;
78430;SDS011;67727;50.236;22.452;2023-11-18T11:46:57;158.80;;;55.00;;
78430;SDS011;67727;50.236;22.452;2023-11-18T11:49:27;115.30;;;45.60;;
78430;SDS011;67727;50.236;22.452;2023-11-18T11:52:04;80.80;;;34.00;;
78430;SDS011;67727;50.236;22.452;2023-11-18T11:54:42;52.90;;;22.00;;
78430;SDS011;67727;50.236;22.452;2023-11-18T11:57:18;59.30;;;26.10;;
78430;SDS011;67727;50.236;22.452;2023-11-18T12:02:13;244.20;;;76.90;;
78430;SDS011;67727;50.236;22.452;2023-11-18T12:04:44;390.40;;;135.00;;
78430;SDS011;67727;50.236;22.452;2023-11-18T12:07:14;401.20;;;135.30;;
78430;SDS011;67727;50.236;22.452;2023-11-18T12:09:42;87.90;;;32.50;;
78430;SDS011;67727;50.236;22.452;2023-11-18T12:12:16;190.30;;;61.10;;
78430;SDS011;67727;50.236;22.452;2023-11-18T12:14:55;119.40;;;35.30;;
78430;SDS011;67727;50.236;22.452;2023-11-18T12:17:24;120.60;;;47.50;;
78430;SDS011;67727;50.236;22.452;2023-11-18T12:19:58;116.40;;;45.50;;
78430;SDS011;67727;50.236;22.452;2023-11-18T12:22:25;275.40;;;109.80;;
78430;SDS011;67727;50.236;22.452;2023-11-18T12:35:22;35.30;;;15.10;;
78430;SDS011;67727;50.236;22.452;2023-11-18T12:38:05;28.50;;;14.60;;
78430;SDS011;67727;50.236;22.452;2023-11-18T12:43:19;122.50;;;45.20;;
78430;SDS011;67727;50.236;22.452;2023-11-18T12:46:28;96.80;;;33.90;;
78430;SDS011;67727;50.236;22.452;2023-11-18T12:49:22;153.50;;;55.60;;
78430;SDS011;67727;50.236;22.452;2023-11-18T12:51:51;112.50;;;46.00;;
78430;SDS011;67727;50.236;22.452;2023-11-18T12:54:19;55.10;;;21.60;;
78430;SDS011;67727;50.236;22.452;2023-11-18T12:56:48;93.10;;;40.70;;
78430;SDS011;67727;50.236;22.452;2023-11-18T12:59:16;354.30;;;109.10;;
78430;SDS011;67727;50.236;22.452;2023-11-18T13:01:47;505.30;;;180.70;;
78430;SDS011;67727;50.236;22.452;2023-11-18T13:04:19;142.30;;;46.10;;
78430;SDS011;67727;50.236;22.452;2023-11-18T13:06:46;42.70;;;17.40;;
78430;SDS011;67727;50.236;22.452;2023-11-18T13:09:14;205.20;;;69.90;;
78430;SDS011;67727;50.236;22.452;2023-11-18T13:12:00;144.50;;;40.60;;
78430;SDS011;67727;50.236;22.452;2023-11-18T13:14:32;110.20;;;48.20;;
78430;SDS011;67727;50.236;22.452;2023-11-18T13:17:09;949.60;;;344.30;;
78430;SDS011;67727;50.236;22.452;2023-11-18T13:19:38;375.10;;;106.00;;
78430;SDS011;67727;50.236;22.452;2023-11-18T13:22:07;346.00;;;156.20;;
78430;SDS011;67727;50.236;22.452;2023-11-18T13:24:35;70.60;;;28.80;;
78430;SDS011;67727;50.236;22.452;2023-11-18T13:27:03;89.70;;;37.90;;
78430;SDS011;67727;50.236;22.452;2023-11-18T13:31:58;94.90;;;37.90;;
78430;SDS011;67727;50.236;22.452;2023-11-18T13:34:30;47.80;;;22.90;;
78430;SDS011;67727;50.236;22.452;2023-11-18T13:37:01;20.70;;;10.50;;
78430;SDS011;67727;50.236;22.452;2023-11-18T13:39:29;17.60;;;10.90;;
78430;SDS011;67727;50.236;22.452;2023-11-18T13:41:57;21.90;;;9.50;;
78430;SDS011;67727;50.236;22.452;2023-11-18T13:44:36;16.40;;;7.70;;
78430;SDS011;67727;50.236;22.452;2023-11-18T13:47:12;20.40;;;11.90;;
78430;SDS011;67727;50.236;22.452;2023-11-18T13:49:39;32.30;;;17.70;;
78430;SDS011;67727;50.236;22.452;2023-11-18T13:52:07;21.40;;;11.90;;
78430;SDS011;67727;50.236;22.452;2023-11-18T13:54:37;18.10;;;12.00;;
78430;SDS011;67727;50.236;22.452;2023-11-18T13:57:04;149.00;;;59.70;;
78430;SDS011;67727;50.236;22.452;2023-11-18T13:59:32;274.10;;;89.00;;
78430;SDS011;67727;50.236;22.452;2023-11-18T14:02:00;78.40;;;31.50;;
78430;SDS011;67727;50.236;22.452;2023-11-18T14:04:31;544.80;;;170.30;;
78430;SDS011;67727;50.236;22.452;2023-11-18T14:07:00;405.90;;;112.60;;
78430;SDS011;67727;50.236;22.452;2023-11-18T14:09:30;231.90;;;70.30;;
78430;SDS011;67727;50.236;22.452;2023-11-18T14:12:02;330.40;;;96.20;;
78430;SDS011;67727;50.236;22.452;2023-11-18T14:14:31;507.80;;;157.30;;
78430;SDS011;67727;50.236;22.452;2023-11-18T14:16:58;620.00;;;227.20;;
78430;SDS011;67727;50.236;22.452;2023-11-18T14:19:25;353.00;;;116.70;;
78430;SDS011;67727;50.236;22.452;2023-11-18T14:21:54;328.30;;;90.80;;
78430;SDS011;67727;50.236;22.452;2023-11-18T14:24:22;255.30;;;78.80;;
78430;SDS011;67727;50.236;22.452;2023-11-18T14:26:54;463.70;;;146.40;;
78430;SDS011;67727;50.236;22.452;2023-11-18T14:29:22;363.80;;;86.90;;
78430;SDS011;67727;50.236;22.452;2023-11-18T14:31:49;440.00;;;100.60;;
78430;SDS011;67727;50.236;22.452;2023-11-18T14:34:16;412.60;;;101.50;;
78430;SDS011;67727;50.236;22.452;2023-11-18T14:36:42;389.80;;;85.60;;
78430;SDS011;67727;50.236;22.452;2023-11-18T14:39:09;461.70;;;127.60;;
78430;SDS011;67727;50.236;22.452;2023-11-18T14:41:39;409.20;;;135.80;;
78430;SDS011;67727;50.236;22.452;2023-11-18T14:44:07;1052.90;;;460.50;;
78430;SDS011;67727;50.236;22.452;2023-11-18T14:46:35;308.40;;;129.20;;
78430;SDS011;67727;50.236;22.452;2023-11-18T14:49:04;321.80;;;102.60;;
78430;SDS011;67727;50.236;22.452;2023-11-18T14:51:36;249.00;;;87.00;;
78430;SDS011;67727;50.236;22.452;2023-11-18T14:54:03;367.10;;;114.90;;
78430;SDS011;67727;50.236;22.452;2023-11-18T14:56:31;369.50;;;99.20;;
78430;SDS011;67727;50.236;22.452;2023-11-18T14:58:58;640.10;;;195.80;;
78430;SDS011;67727;50.236;22.452;2023-11-18T15:01:26;1377.00;;;478.50;;
78430;SDS011;67727;50.236;22.452;2023-11-18T15:03:53;331.00;;;117.00;;
78430;SDS011;67727;50.236;22.452;2023-11-18T15:06:26;149.10;;;41.60;;
78430;SDS011;67727;50.236;22.452;2023-11-18T15:08:54;569.70;;;189.60;;
78430;SDS011;67727;50.236;22.452;2023-11-18T15:11:23;269.70;;;86.00;;
78430;SDS011;67727;50.236;22.452;2023-11-18T15:13:50;328.40;;;76.10;;
78430;SDS011;67727;50.236;22.452;2023-11-18T15:16:19;272.90;;;61.30;;